createdAt,value
2018-07-03T00:06:45.474Z,1.00
2018-07-03T00:09:13.562Z,0.80
2018-07-03T00:46:09.848Z,0.97
2018-07-03T00:48:37.649Z,1.00
2018-07-03T00:51:05.850Z,0.77
2018-07-03T00:53:33.861Z,0.83
2018-07-03T00:56:01.983Z,1.10
2018-07-03T00:58:29.789Z,0.97
2018-07-03T01:00:57.806Z,1.00
2018-07-03T01:03:25.813Z,0.70
2018-07-03T01:05:53.825Z,1.03
2018-07-03T01:08:21.842Z,1.10
2018-07-03T01:10:49.856Z,0.90
2018-07-03T01:13:17.866Z,1.10
2018-07-03T01:15:45.743Z,0.97
2018-07-03T01:18:13.759Z,0.80
2018-07-03T01:20:41.775Z,0.90
2018-07-03T01:23:09.862Z,0.90
2018-07-03T01:25:37.879Z,0.80
2018-07-03T01:28:05.905Z,0.80
2018-07-03T01:30:33.934Z,1.00
2018-07-03T01:33:01.955Z,0.87
2018-07-03T01:35:29.990Z,0.87
2018-07-03T01:37:57.998Z,0.90
2018-07-03T01:40:26.006Z,0.90
2018-07-03T01:42:54.019Z,0.90
2018-07-03T01:45:22.037Z,0.80
2018-07-03T01:47:50.174Z,1.13
2018-07-03T01:50:18.199Z,0.90
2018-07-03T01:55:13.362Z,1.07
2018-07-03T01:57:41.369Z,0.90
2018-07-03T02:00:09.382Z,0.80
2018-07-03T02:02:37.394Z,0.83
2018-07-03T02:05:05.409Z,1.00
2018-07-03T02:07:33.446Z,1.10
2018-07-03T02:10:01.472Z,0.83
2018-07-03T02:12:29.486Z,0.83
2018-07-03T02:14:57.502Z,1.00
2018-07-03T02:19:52.670Z,1.03
2018-07-03T02:22:20.711Z,1.30
2018-07-03T02:24:48.731Z,1.10
2018-07-03T02:27:16.759Z,0.90
2018-07-03T02:29:44.767Z,0.90
2018-07-03T02:32:12.782Z,1.10
2018-07-03T02:34:40.587Z,1.20
2018-07-03T02:37:08.594Z,1.10
2018-07-03T02:39:36.614Z,0.93
2018-07-03T02:42:04.995Z,0.90
2018-07-03T02:44:33.015Z,0.95
2018-07-03T02:47:01.048Z,0.90
2018-07-03T02:49:29.078Z,0.90
2018-07-03T02:51:56.891Z,0.80
2018-07-03T03:14:05.444Z,1.00
2018-07-03T03:21:28.230Z,1.10
2018-07-03T03:41:08.253Z,1.00
2018-07-03T03:43:36.522Z,1.03
2018-07-03T04:00:48.798Z,1.20
2018-07-03T04:03:16.787Z,1.00
2018-07-03T04:05:44.807Z,1.27
2018-07-03T04:08:12.824Z,1.07
2018-07-03T04:10:40.838Z,1.20
2018-07-03T04:15:36.239Z,0.93
2018-07-03T04:18:04.246Z,1.20
2018-07-03T04:20:32.290Z,1.37
2018-07-03T04:23:00.303Z,1.13
2018-07-03T04:25:28.317Z,1.00
2018-07-03T04:27:56.330Z,1.10
2018-07-03T04:30:24.347Z,1.30
2018-07-03T04:32:52.362Z,1.10
2018-07-03T04:42:42.455Z,1.30
2018-07-03T04:50:05.204Z,1.20
2018-07-03T04:55:00.722Z,1.30
2018-07-03T04:57:28.759Z,1.33
2018-07-03T04:59:56.775Z,1.40
2018-07-03T05:02:24.792Z,1.65
2018-07-03T05:07:20.185Z,1.00
2018-07-03T05:09:48.195Z,1.50
2018-07-03T05:12:15.989Z,0.83
2018-07-03T05:14:44.014Z,0.93
2018-07-03T05:17:12.030Z,1.05
2018-07-03T05:31:56.866Z,1.00
2018-07-03T05:34:24.885Z,1.00
2018-07-03T05:36:53.094Z,1.13
2018-07-03T05:49:10.618Z,1.07
2018-07-03T05:54:05.994Z,1.00
2018-07-03T06:13:45.491Z,1.00
2018-07-03T06:16:13.503Z,1.10
2018-07-03T06:18:41.511Z,0.90
2018-07-03T06:21:09.526Z,1.13
2018-07-03T06:23:37.539Z,1.00
2018-07-03T06:26:05.555Z,1.13
2018-07-03T06:28:33.745Z,1.17
2018-07-03T06:31:01.398Z,0.90
2018-07-03T06:33:29.408Z,1.00
2018-07-03T06:35:57.418Z,1.03
2018-07-03T06:45:47.527Z,0.85
2018-07-03T06:53:10.259Z,1.00
2018-07-03T06:55:38.262Z,1.00
2018-07-03T06:58:06.270Z,1.00
2018-07-03T07:00:34.153Z,1.10
2018-07-03T07:07:56.948Z,0.90
2018-07-03T07:10:24.961Z,1.00
2018-07-03T07:17:47.707Z,1.10
2018-07-03T07:20:15.735Z,1.27
2018-07-03T07:22:43.750Z,0.90
2018-07-03T07:30:06.451Z,0.70
2018-07-03T07:37:29.213Z,0.80
2018-07-03T07:39:57.218Z,0.80
2018-07-03T07:42:25.238Z,1.20
2018-07-03T07:44:53.359Z,0.83
2018-07-03T07:47:21.379Z,0.70
2018-07-03T07:49:49.406Z,0.80
2018-07-03T07:59:39.507Z,1.30
2018-07-03T08:02:07.787Z,1.03
2018-07-03T08:04:35.807Z,0.70
2018-07-03T08:07:03.815Z,0.80
2018-07-03T08:09:31.830Z,0.83
2018-07-03T08:11:59.838Z,0.70
2018-07-03T08:14:27.855Z,0.80
2018-07-03T08:16:55.866Z,0.80
2018-07-03T08:19:23.882Z,0.90
2018-07-03T08:21:51.971Z,0.70
2018-07-03T08:24:19.986Z,0.80
2018-07-03T08:26:47.999Z,1.00
2018-07-03T08:29:16.019Z,0.90
2018-07-03T08:31:44.038Z,0.90
2018-07-03T08:34:12.062Z,1.00
2018-07-03T08:36:40.083Z,0.75
2018-07-03T08:39:09.651Z,0.80
2018-07-03T08:41:37.666Z,1.12
2018-07-03T08:44:05.692Z,1.00
2018-07-03T08:53:55.941Z,0.88
2018-07-03T09:03:46.178Z,0.70
2018-07-03T09:06:14.190Z,1.02
2018-07-03T09:08:42.206Z,1.20
2018-07-03T09:40:38.974Z,0.70
2018-07-03T10:02:50.729Z,0.60
2018-07-03T10:05:18.750Z,0.80
2018-07-03T10:07:46.770Z,0.70
2018-07-03T10:17:36.871Z,1.00
2018-07-03T10:20:04.994Z,0.90
2018-07-03T10:22:33.014Z,0.80
2018-07-03T10:25:01.022Z,0.80
2018-07-03T10:27:29.042Z,0.93
2018-07-03T10:29:57.056Z,0.90
2018-07-03T10:32:25.066Z,0.70
2018-07-03T10:34:53.087Z,0.80
2018-07-03T10:37:21.102Z,0.95
2018-07-03T10:39:49.122Z,1.02
2018-07-03T10:42:17.136Z,0.85
2018-07-03T10:44:45.151Z,0.95
2018-07-03T10:47:13.175Z,1.02
2018-07-03T10:49:41.364Z,1.10
2018-07-03T10:52:09.414Z,0.90
2018-07-03T10:54:37.438Z,1.05
2018-07-03T10:57:05.238Z,0.80
2018-07-03T10:59:33.314Z,0.93
2018-07-03T11:02:01.294Z,0.70
2018-07-03T11:04:29.501Z,1.10
2018-07-03T11:06:57.510Z,1.05
2018-07-03T11:09:25.317Z,0.78
2018-07-03T11:11:53.331Z,0.80
2018-07-03T11:14:21.346Z,0.70
2018-07-03T11:16:49.366Z,0.70
2018-07-03T11:19:17.386Z,0.98
2018-07-03T11:21:45.205Z,0.90
2018-07-03T11:24:13.362Z,0.90
2018-07-03T11:26:41.374Z,0.90
2018-07-03T11:29:09.392Z,0.80
2018-07-03T11:31:37.410Z,1.00
2018-07-03T11:34:05.443Z,1.00
2018-07-03T11:36:33.459Z,0.90
2018-07-03T11:39:01.474Z,0.90
2018-07-03T11:41:29.354Z,0.90
2018-07-03T11:43:57.385Z,0.75
2018-07-03T11:46:25.396Z,1.00
2018-07-03T11:51:20.770Z,1.10
2018-07-03T11:56:16.151Z,1.00
2018-07-03T11:58:44.179Z,1.10
2018-07-03T12:01:12.190Z,0.90
2018-07-03T12:03:40.002Z,1.00
2018-07-03T12:06:08.016Z,1.37
2018-07-03T12:08:36.027Z,1.02
2018-07-03T12:11:04.047Z,1.02
2018-07-03T12:13:32.090Z,1.20
2018-07-03T12:16:00.107Z,1.20
2018-07-03T12:18:33.543Z,1.10
2018-07-03T12:25:56.154Z,1.20
2018-07-03T12:28:24.166Z,1.15
2018-07-03T12:30:52.182Z,1.30
2018-07-03T12:33:20.203Z,1.50
2018-07-03T12:35:48.010Z,1.50
2018-07-03T12:38:16.046Z,1.60
2018-07-03T12:40:44.110Z,1.50
2018-07-03T12:43:12.126Z,1.50
2018-07-03T12:50:34.862Z,1.60
2018-07-03T12:53:02.887Z,1.40
2018-07-03T12:57:58.282Z,2.00
2018-07-03T13:00:26.291Z,1.70
2018-07-03T13:05:21.895Z,1.80
2018-07-03T13:17:40.030Z,1.70
2018-07-03T13:22:35.426Z,1.82
2018-07-03T13:27:30.830Z,1.87
2018-07-03T13:29:58.862Z,2.05
2018-07-03T13:32:26.876Z,1.80
2018-07-03T13:49:39.146Z,1.72
2018-07-03T13:52:07.162Z,1.65
2018-07-03T13:54:35.182Z,1.40
2018-07-03T13:57:02.990Z,1.60
2018-07-03T13:59:31.023Z,1.65
2018-07-03T14:01:59.030Z,1.60
2018-07-03T14:04:27.051Z,1.30
2018-07-03T14:09:22.422Z,1.60
2018-07-03T14:11:50.439Z,1.60
2018-07-03T14:14:18.497Z,1.50
2018-07-03T14:16:46.469Z,1.60
2018-07-03T14:19:14.270Z,1.60
2018-07-03T14:26:36.886Z,1.47
2018-07-03T14:29:04.899Z,1.92
2018-07-03T14:31:32.723Z,1.70
2018-07-03T14:34:00.746Z,1.60
2018-07-03T14:36:28.812Z,1.42
2018-07-03T14:41:23.945Z,1.70
2018-07-03T14:48:46.647Z,1.45
2018-07-03T14:51:14.662Z,2.00
2018-07-03T14:53:42.679Z,1.50
2018-07-03T14:56:10.694Z,1.75
2018-07-03T15:03:33.245Z,1.60
2018-07-03T15:06:01.263Z,1.37
2018-07-03T15:52:42.063Z,1.37
2018-07-03T16:17:32.898Z,1.10
2018-07-03T16:29:56.012Z,1.27
2018-07-03T16:52:03.030Z,1.20
2018-07-03T16:56:58.414Z,1.13
2018-07-03T16:59:26.445Z,1.30
2018-07-03T17:04:21.870Z,1.20
2018-07-03T17:19:12.834Z,1.30
2018-07-03T17:24:08.226Z,1.42
2018-07-03T17:33:58.654Z,1.35
2018-07-03T17:38:53.978Z,1.60
2018-07-03T17:44:08.332Z,1.40
2018-07-03T17:46:36.351Z,1.65
2018-07-03T17:49:04.646Z,1.27
2018-07-03T17:51:32.922Z,1.30
2018-07-03T17:54:00.934Z,1.70
2018-07-03T17:56:28.959Z,1.70
2018-07-03T17:58:56.974Z,2.20
2018-07-03T18:01:24.990Z,1.70
2018-07-03T18:03:53.010Z,1.50
2018-07-03T18:06:21.026Z,1.60
2018-07-03T18:08:49.510Z,2.10
2018-07-03T18:11:17.722Z,2.10
2018-07-03T18:13:45.763Z,1.85
2018-07-03T18:16:13.851Z,1.67
2018-07-03T18:18:41.870Z,1.62
2018-07-03T18:21:10.312Z,1.60
2018-07-03T18:23:38.339Z,1.80
2018-07-03T18:26:06.672Z,2.00
2018-07-03T18:28:34.477Z,1.80
2018-07-03T18:31:02.943Z,2.17
2018-07-03T18:33:30.978Z,2.67
2018-07-03T18:35:59.098Z,2.33
2018-07-03T18:38:27.149Z,2.15
2018-07-03T18:40:55.190Z,1.77
2018-07-03T18:43:23.207Z,2.30
2018-07-03T18:45:51.238Z,2.40
2018-07-03T18:50:46.663Z,1.80
2018-07-03T19:17:48.734Z,2.60
2018-07-03T19:20:16.850Z,2.22
2018-07-03T19:22:44.890Z,2.10
2018-07-03T19:52:14.343Z,2.33
2018-07-03T19:54:42.380Z,2.52
2018-07-03T19:57:10.410Z,2.27
2018-07-03T19:59:38.434Z,2.47
2018-07-03T20:02:06.547Z,2.55
2018-07-03T20:04:34.511Z,2.63
2018-07-03T20:11:57.277Z,2.70
2018-07-03T20:14:25.286Z,2.98
2018-07-03T20:24:16.273Z,2.70
2018-07-03T20:26:44.407Z,2.62
2018-07-03T20:29:13.134Z,2.72
2018-07-03T20:31:41.150Z,2.60
2018-07-03T20:34:09.187Z,2.40
2018-07-03T20:36:37.489Z,2.62
2018-07-03T20:39:07.559Z,2.60
2018-07-03T20:41:35.602Z,2.47
2018-07-03T20:44:03.657Z,2.47
2018-07-03T20:46:31.745Z,2.60
2018-07-03T20:48:59.825Z,2.77
2018-07-03T20:58:49.933Z,3.40
2018-07-03T21:08:40.092Z,2.67
2018-07-03T21:11:08.102Z,2.83
2018-07-03T21:13:35.910Z,2.53
2018-07-03T21:16:04.027Z,2.62
2018-07-03T21:18:32.058Z,2.53
2018-07-03T21:21:00.083Z,2.27
2018-07-03T21:23:28.183Z,2.67
2018-07-03T21:25:55.990Z,2.60
2018-07-03T21:28:24.001Z,2.60
2018-07-03T21:30:52.031Z,2.70
2018-07-03T21:33:20.047Z,3.10
2018-07-03T21:35:48.071Z,3.13
2018-07-03T21:38:16.091Z,3.63
2018-07-03T21:40:44.106Z,3.23
2018-07-03T21:43:12.128Z,3.60
2018-07-03T21:45:40.155Z,3.50
2018-07-03T21:48:08.188Z,3.20
2018-07-03T21:50:36.242Z,3.00
2018-07-03T21:53:04.309Z,3.37
2018-07-03T21:55:32.334Z,3.47
2018-07-03T21:58:00.355Z,2.93
2018-07-03T22:00:35.722Z,3.20
2018-07-03T22:03:05.033Z,3.53
2018-07-03T22:05:33.053Z,3.40
2018-07-03T22:08:01.122Z,3.10
2018-07-03T22:10:29.175Z,3.40
2018-07-03T22:12:57.186Z,3.47
2018-07-03T22:15:25.206Z,3.03
2018-07-03T22:17:53.236Z,3.50
2018-07-03T22:37:33.100Z,3.53
2018-07-03T22:40:01.126Z,3.00
2018-07-03T22:42:29.135Z,3.70
2018-07-03T22:44:57.150Z,3.43
2018-07-03T22:47:25.312Z,3.17
2018-07-03T22:49:53.330Z,3.43
2018-07-03T22:52:21.347Z,3.40
2018-07-03T22:54:49.362Z,3.43
2018-07-03T22:57:17.375Z,3.57
2018-07-03T22:59:45.391Z,3.40
2018-07-03T23:02:13.398Z,2.90
2018-07-03T23:04:41.407Z,3.33
2018-07-03T23:07:09.422Z,2.80
2018-07-03T23:09:37.442Z,3.50
2018-07-03T23:12:05.603Z,3.63
2018-07-03T23:14:33.654Z,3.73
2018-07-03T23:17:01.682Z,2.97
2018-07-03T23:19:29.682Z,3.80
2018-07-03T23:21:57.585Z,3.57
2018-07-03T23:24:25.594Z,3.10
2018-07-03T23:26:53.846Z,3.10
2018-07-03T23:29:21.683Z,4.17
2018-07-03T23:31:49.710Z,3.70
2018-07-03T23:34:17.727Z,4.30
2018-07-03T23:36:45.530Z,3.57
2018-07-03T23:39:13.550Z,3.77
2018-07-03T23:41:41.567Z,3.63
2018-07-03T23:44:09.579Z,3.20
2018-07-03T23:46:49.182Z,3.80
2018-07-03T23:49:28.798Z,3.80
2018-07-03T23:52:08.370Z,4.17
2018-07-03T23:54:47.818Z,3.97
2018-07-03T23:57:27.215Z,4.10
